Time;durP1;ratioP1;P1;durP2;ratioP2;P2;SDS_P1;SDS_P2;PMS_P1;PMS_P2;Temp;Humidity;BMP_temperature;BMP_pressure;BME280_temperature;BME280_humidity;BME280_pressure;Samples;Min_cycle;Max_cycle;Signal;HPM_P1;HPM_P2
2023/06/12 01:11:03;;;;;;;13.73;8.68;;;;;;;;;;6278570;22;20201;-91
2023/06/12 01:14:08;;;;;;;16.63;8.43;;;;;;;;;;6300829;22;20597;-92
2023/06/12 01:17:13;;;;;;;15.25;9.05;;;;;;;;;;6298567;22;20221;-93
2023/06/12 01:20:19;;;;;;;14.50;9.52;;;;;;;;;;6301366;22;20233;-92
2023/06/12 01:23:38;;;;;;;17.75;9.25;;;;;;;;;;6299948;22;20161;-91
2023/06/12 01:26:54;;;;;;;16.52;9.65;;;;;;;;;;6301132;22;20161;-92
2023/06/12 01:30:15;;;;;;;16.45;8.93;;;;;;;;;;6301089;22;20166;-91
2023/06/12 01:33:25;;;;;;;12.80;8.05;;;;;;;;;;6300828;22;20169;-91
2023/06/12 01:36:32;;;;;;;14.27;7.95;;;;;;;;;;6300286;22;20165;-91
2023/06/12 01:39:40;;;;;;;15.52;8.60;;;;;;;;;;6299726;22;20149;-92
2023/06/12 01:42:47;;;;;;;14.82;8.73;;;;;;;;;;6300176;22;20173;-92
2023/06/12 01:45:52;;;;;;;14.98;9.05;;;;;;;;;;6301148;22;20173;-91
2023/06/12 01:52:18;;;;;;;14.40;8.65;;;;;;;;;;6302032;22;20174;-91
2023/06/12 01:55:27;;;;;;;19.83;8.95;;;;;;;;;;6301606;22;20166;-90
2023/06/12 01:58:32;;;;;;;19.20;8.90;;;;;;;;;;6301923;22;20243;-92
2023/06/12 02:01:49;;;;;;;14.32;8.20;;;;;;;;;;6301949;22;20189;-92
2023/06/12 02:04:56;;;;;;;13.30;9.10;;;;;;;;;;6302848;22;20546;-93
2023/06/12 02:08:01;;;;;;;17.27;8.82;;;;;;;;;;6302965;22;20161;-93
2023/06/12 02:11:06;;;;;;;17.85;8.82;;;;;;;;;;6301360;22;20189;-91
2023/06/12 02:14:12;;;;;;;15.98;8.77;;;;;;;;;;6303560;22;20199;-91
2023/06/12 02:17:17;;;;;;;13.90;8.38;;;;;;;;;;6303426;22;20190;-92
2023/06/12 02:20:25;;;;;;;18.40;9.93;;;;;;;;;;6304535;22;20161;-92
2023/06/12 02:23:32;;;;;;;16.92;8.50;;;;;;;;;;6305269;22;20173;-91
2023/06/12 02:26:38;;;;;;;12.27;8.43;;;;;;;;;;6302983;22;20161;-91
2023/06/12 02:29:43;;;;;;;11.98;8.27;;;;;;;;;;6304724;22;20145;-92
2023/06/12 02:32:49;;;;;;;11.45;7.50;;;;;;;;;;6303053;22;20185;-92
2023/06/12 02:35:56;;;;;;;13.75;8.07;;;;;;;;;;6304072;22;20493;-92
2023/06/12 02:39:02;;;;;;;18.75;7.97;;;;;;;;;;6303355;22;20161;-92
2023/06/12 02:42:07;;;;;;;13.68;8.00;;;;;;;;;;6301569;22;20146;-90
2023/06/12 02:45:13;;;;;;;13.27;8.35;;;;;;;;;;6302283;22;20296;-92
2023/06/12 02:48:21;;;;;;;14.45;8.45;;;;;;;;;;6301813;22;20165;-92
2023/06/12 02:51:28;;;;;;;12.73;7.75;;;;;;;;;;6303285;22;20172;-92
2023/06/12 02:54:33;;;;;;;13.80;8.10;;;;;;;;;;6301674;22;20489;-91
2023/06/12 02:57:49;;;;;;;13.82;8.35;;;;;;;;;;6301407;22;20148;-91
2023/06/12 03:00:56;;;;;;;13.00;8.43;;;;;;;;;;6302406;22;20173;-92
2023/06/12 03:04:01;;;;;;;16.17;8.80;;;;;;;;;;6300928;22;20169;-92
2023/06/12 03:07:08;;;;;;;12.45;9.02;;;;;;;;;;6319816;22;20209;-91
2023/06/12 03:10:13;;;;;;;14.40;7.50;;;;;;;;;;6299219;22;20256;-91
2023/06/12 03:13:20;;;;;;;15.95;8.40;;;;;;;;;;6302170;22;20148;-92
2023/06/12 03:16:25;;;;;;;14.70;8.60;;;;;;;;;;6302123;22;20165;-91
2023/06/12 03:19:30;;;;;;;18.23;9.05;;;;;;;;;;6301354;22;20170;-92
2023/06/12 03:22:37;;;;;;;14.95;7.95;;;;;;;;;;6300280;22;20289;-91
2023/06/12 03:25:41;;;;;;;15.52;8.00;;;;;;;;;;6298484;22;20169;-92
2023/06/12 03:28:47;;;;;;;14.00;8.90;;;;;;;;;;6299901;22;20196;-93
2023/06/12 03:31:53;;;;;;;13.00;8.18;;;;;;;;;;6301174;22;20283;-92
2023/06/12 03:34:59;;;;;;;14.45;8.30;;;;;;;;;;6301025;22;20173;-91
2023/06/12 03:38:05;;;;;;;14.80;8.05;;;;;;;;;;6301260;22;20243;-92
2023/06/12 03:41:11;;;;;;;14.20;7.82;;;;;;;;;;6299941;22;20165;-92
2023/06/12 03:44:17;;;;;;;16.75;8.02;;;;;;;;;;6300872;22;20141;-91
2023/06/12 03:47:22;;;;;;;16.13;8.60;;;;;;;;;;6300224;22;20488;-92
2023/06/12 03:50:28;;;;;;;13.18;8.30;;;;;;;;;;6300464;22;20283;-92
2023/06/12 03:53:34;;;;;;;11.88;7.90;;;;;;;;;;6300738;22;20239;-91
2023/06/12 03:56:41;;;;;;;13.27;7.30;;;;;;;;;;6298668;22;20164;-91
2023/06/12 03:59:49;;;;;;;14.55;8.02;;;;;;;;;;6300158;22;20235;-91
2023/06/12 04:03:24;;;;;;;11.68;8.07;;;;;;;;;;6302525;22;20157;-91
2023/06/12 04:06:32;;;;;;;13.23;8.85;;;;;;;;;;6300161;22;20165;-91
2023/06/12 04:09:39;;;;;;;15.52;8.85;;;;;;;;;;6300171;22;20177;-91
2023/06/12 04:12:44;;;;;;;14.70;8.63;;;;;;;;;;6300896;22;20219;-91
2023/06/12 04:15:50;;;;;;;12.82;8.30;;;;;;;;;;6301796;22;20167;-91
2023/06/12 04:19:22;;;;;;;14.82;7.75;;;;;;;;;;6301251;22;20276;-91
2023/06/12 04:22:28;;;;;;;12.10;8.30;;;;;;;;;;6302365;22;20173;-91
2023/06/12 04:25:35;;;;;;;16.48;8.02;;;;;;;;;;6302442;22;20161;-91
2023/06/12 04:28:41;;;;;;;13.63;8.25;;;;;;;;;;6303480;22;20180;-90
2023/06/12 04:31:46;;;;;;;10.80;7.30;;;;;;;;;;6303405;22;20189;-91
2023/06/12 04:34:51;;;;;;;16.73;7.57;;;;;;;;;;6304776;22;20169;-91
2023/06/12 04:37:56;;;;;;;10.05;6.70;;;;;;;;;;6302563;22;20161;-90
2023/06/12 04:41:05;;;;;;;11.95;6.85;;;;;;;;;;6303794;22;20299;-91
2023/06/12 04:44:11;;;;;;;11.10;7.03;;;;;;;;;;6304185;22;20157;-90
2023/06/12 04:47:20;;;;;;;15.23;7.03;;;;;;;;;;6301919;22;20165;-92
2023/06/12 04:50:25;;;;;;;15.27;7.03;;;;;;;;;;6302838;22;20166;-92
2023/06/12 04:53:33;;;;;;;16.55;6.97;;;;;;;;;;6303713;22;20168;-91
2023/06/12 04:56:44;;;;;;;11.73;6.85;;;;;;;;;;6302076;22;20426;-91
2023/06/12 04:59:50;;;;;;;15.40;7.20;;;;;;;;;;6302920;22;20221;-90
2023/06/12 05:02:55;;;;;;;12.65;6.47;;;;;;;;;;6302285;22;20165;-90
2023/06/12 05:06:02;;;;;;;10.95;6.78;;;;;;;;;;6302894;22;20164;-91
2023/06/12 05:09:23;;;;;;;9.38;6.30;;;;;;;;;;6303219;22;20156;-90
2023/06/12 05:12:30;;;;;;;13.55;7.13;;;;;;;;;;6301508;22;20193;-91
2023/06/12 05:15:37;;;;;;;12.68;6.45;;;;;;;;;;6306221;22;20161;-90
2023/06/12 05:18:42;;;;;;;10.95;5.82;;;;;;;;;;6307195;22;20165;-93
2023/06/12 05:21:49;;;;;;;9.07;5.90;;;;;;;;;;6304480;22;20168;-92
2023/06/12 05:24:55;;;;;;;12.43;6.40;;;;;;;;;;6303966;22;20199;-92
2023/06/12 05:28:04;;;;;;;11.85;7.40;;;;;;;;;;6303996;22;20177;-92
2023/06/12 05:31:10;;;;;;;12.23;6.35;;;;;;;;;;6303901;22;20194;-92
2023/06/12 05:34:16;;;;;;;10.82;6.80;;;;;;;;;;6305296;22;20161;-91
2023/06/12 05:37:22;;;;;;;11.93;6.07;;;;;;;;;;6305287;22;20584;-91
2023/06/12 05:40:27;;;;;;;26.67;14.93;;;;;;;;;;6305719;22;20604;-94
2023/06/12 05:43:34;;;;;;;14.35;6.50;;;;;;;;;;6303480;22;20188;-92
2023/06/12 05:46:39;;;;;;;12.30;6.47;;;;;;;;;;6305925;22;20149;-90
2023/06/12 05:49:45;;;;;;;11.07;5.82;;;;;;;;;;6306375;22;20149;-93
2023/06/12 05:52:52;;;;;;;10.07;5.45;;;;;;;;;;6305785;22;20184;-93
2023/06/12 05:56:03;;;;;;;13.48;6.30;;;;;;;;;;6304615;22;20172;-92
2023/06/12 05:59:10;;;;;;;15.07;6.25;;;;;;;;;;6305785;22;20216;-93
2023/06/12 06:02:16;;;;;;;11.63;5.80;;;;;;;;;;6305638;22;20188;-89
2023/06/12 06:05:22;;;;;;;11.30;5.75;;;;;;;;;;6307222;22;20197;-92
2023/06/12 06:08:28;;;;;;;17.98;5.53;;;;;;;;;;6309500;22;20162;-93
2023/06/12 12:34:39;;;;;;;7.07;2.85;;;;;;;;;;6209970;22;20616;31
2023/06/12 12:37:46;;;;;;;3.25;2.30;;;;;;;;;;6155696;23;20608;-91
2023/06/12 12:44:15;;;;;;;6.47;2.40;;;;;;;;;;6156174;23;20231;-91
2023/06/12 12:47:20;;;;;;;3.95;2.70;;;;;;;;;;6155360;23;20160;-92
2023/06/12 12:50:26;;;;;;;5.32;2.63;;;;;;;;;;6155634;23;20163;-92
2023/06/12 12:53:32;;;;;;;3.67;2.45;;;;;;;;;;6154701;23;20236;-91
2023/06/12 12:56:40;;;;;;;5.70;2.10;;;;;;;;;;6154394;23;20188;-90
2023/06/12 12:59:49;;;;;;;5.05;2.40;;;;;;;;;;6155885;23;20489;-89
2023/06/12 13:02:55;;;;;;;7.53;2.60;;;;;;;;;;6155102;23;20758;-90
2023/06/12 13:06:15;;;;;;;6.65;3.25;;;;;;;;;;6155611;23;20280;-90
2023/06/12 15:30:16;;;;;;;6.53;2.97;;;;;;;;;;6315902;22;20213;-92
2023/06/12 15:33:22;;;;;;;6.88;2.70;;;;;;;;;;6304988;22;20169;-92
2023/06/12 15:36:27;;;;;;;6.15;2.88;;;;;;;;;;6309780;22;20197;-91
2023/06/12 15:39:33;;;;;;;3.72;2.65;;;;;;;;;;6306785;22;20218;-92
2023/06/12 15:42:38;;;;;;;6.70;2.95;;;;;;;;;;6305581;22;20192;-90
2023/06/12 15:45:45;;;;;;;8.52;2.70;;;;;;;;;;6306929;22;20156;-91
2023/06/12 15:48:52;;;;;;;6.72;2.90;;;;;;;;;;6307782;22;20169;-91
2023/06/12 15:51:58;;;;;;;4.38;2.50;;;;;;;;;;6309468;22;20164;-90
2023/06/12 15:55:05;;;;;;;7.47;2.92;;;;;;;;;;6306896;22;20207;-91
2023/06/12 15:58:11;;;;;;;4.90;2.72;;;;;;;;;;6304741;22;20225;-92
2023/06/12 16:01:19;;;;;;;4.82;2.55;;;;;;;;;;6308804;22;20188;-92
2023/06/12 16:04:28;;;;;;;6.03;2.60;;;;;;;;;;6310741;22;20165;-94
2023/06/12 16:07:34;;;;;;;5.65;3.10;;;;;;;;;;6307961;22;20161;-91
2023/06/12 16:10:46;;;;;;;3.95;2.47;;;;;;;;;;6309485;22;20193;-91
2023/06/12 16:17:16;;;;;;;5.15;2.50;;;;;;;;;;6307820;22;20176;-91
2023/06/12 16:20:23;;;;;;;8.50;2.70;;;;;;;;;;6310396;22;20161;-92
2023/06/12 16:23:36;;;;;;;9.80;2.70;;;;;;;;;;6310280;22;20177;-90
2023/06/12 16:26:45;;;;;;;8.05;2.83;;;;;;;;;;6311200;22;20202;-92
2023/06/12 16:29:54;;;;;;;9.30;2.90;;;;;;;;;;6305753;22;20215;-91
2023/06/12 16:33:02;;;;;;;5.20;2.55;;;;;;;;;;6305702;22;20177;-91
2023/06/12 16:36:12;;;;;;;5.30;2.60;;;;;;;;;;6305943;22;20165;-91
2023/06/12 16:39:17;;;;;;;9.82;3.15;;;;;;;;;;6307212;22;20180;-91
2023/06/12 16:42:25;;;;;;;5.13;2.30;;;;;;;;;;6308783;22;20298;-92
2023/06/12 16:45:30;;;;;;;6.47;2.97;;;;;;;;;;6309928;22;20233;-92
2023/06/12 16:48:51;;;;;;;5.32;2.60;;;;;;;;;;6309413;22;20167;-89
2023/06/12 16:52:12;;;;;;;3.60;2.40;;;;;;;;;;6309132;22;20173;-90
2023/06/12 16:55:26;;;;;;;5.68;2.60;;;;;;;;;;6308010;22;20211;-92
